createdAt,value
2023-02-23T07:02:32.077Z,21.83
2023-02-23T07:08:36.859Z,15.73
2023-02-23T07:11:41.687Z,16.75
2023-02-23T07:14:44.114Z,20.58
2023-02-23T07:17:49.237Z,20.00
2023-02-23T07:20:54.346Z,16.65
2023-02-23T07:23:57.042Z,18.37
2023-02-23T07:26:59.550Z,20.20
2023-02-23T07:30:05.265Z,14.63
2023-02-23T07:33:08.988Z,17.23
2023-02-23T07:36:11.609Z,23.12
2023-02-23T07:39:13.991Z,17.70
2023-02-23T07:42:16.696Z,17.60
2023-02-23T07:45:19.106Z,16.73
2023-02-23T07:48:23.135Z,18.80
2023-02-23T07:51:25.551Z,16.90
2023-02-23T07:54:28.180Z,11.88
2023-02-23T07:57:30.547Z,23.95
2023-02-23T08:00:33.211Z,22.65
2023-02-23T08:03:37.210Z,19.58
2023-02-23T08:06:39.734Z,20.42
2023-02-23T08:09:42.463Z,15.77
2023-02-23T08:12:44.945Z,21.65
2023-02-23T08:15:47.627Z,17.60
2023-02-23T08:18:51.393Z,18.45
2023-02-23T08:21:54.072Z,16.42
2023-02-23T08:24:56.414Z,16.58
2023-02-23T08:28:04.741Z,17.98
2023-02-23T08:31:09.404Z,12.18
2023-02-23T08:34:13.470Z,11.52
2023-02-23T08:37:15.838Z,17.58
2023-02-23T08:40:20.745Z,15.38
2023-02-23T08:43:23.137Z,17.00
2023-02-23T08:46:25.806Z,15.20
2023-02-23T08:49:31.111Z,16.17
2023-02-23T08:52:34.090Z,15.25
2023-02-23T08:55:37.858Z,19.85
2023-02-23T08:58:40.481Z,22.13
2023-02-23T09:01:43.114Z,13.77
2023-02-23T09:04:47.211Z,11.80
2023-02-23T09:07:50.027Z,14.52
2023-02-23T09:10:53.711Z,17.57
2023-02-23T09:13:56.060Z,17.12
2023-02-23T09:16:58.786Z,16.62
2023-02-23T09:20:02.638Z,18.75
2023-02-23T09:23:05.284Z,21.40
2023-02-23T09:26:08.156Z,12.07
2023-02-23T09:29:10.805Z,13.50
2023-02-23T09:32:13.425Z,19.20
2023-02-23T09:35:18.219Z,14.87
2023-02-23T09:38:20.590Z,15.80
2023-02-23T09:41:46.223Z,15.07
2023-02-23T09:44:54.942Z,13.43
2023-02-23T09:48:06.544Z,22.25
2023-02-23T09:51:12.267Z,19.30
2023-02-23T09:54:14.887Z,19.77
2023-02-23T09:57:18.781Z,14.18
2023-02-23T10:00:27.339Z,13.02
2023-02-23T10:03:30.548Z,15.10
2023-02-23T10:06:34.308Z,17.35
2023-02-23T10:09:44.421Z,31.58
2023-02-23T10:12:50.769Z,12.52
2023-02-23T10:15:55.975Z,15.63
2023-02-23T10:19:00.825Z,16.87
2023-02-23T10:22:06.435Z,17.95
2023-02-23T10:25:11.534Z,11.82
2023-02-23T10:28:15.172Z,19.95
2023-02-23T10:31:25.228Z,15.00
2023-02-23T10:34:28.979Z,22.02
2023-02-23T10:37:32.694Z,24.65
2023-02-23T10:43:37.896Z,14.60
2023-02-23T10:46:40.600Z,19.27
2023-02-23T10:49:44.618Z,10.23
2023-02-23T10:52:49.110Z,20.85
2023-02-23T10:56:01.134Z,16.67
2023-02-23T10:59:03.788Z,17.60
2023-02-23T11:02:16.778Z,17.65
2023-02-23T11:05:29.418Z,11.67
2023-02-23T11:08:33.691Z,15.48
2023-02-23T11:11:36.296Z,13.65
2023-02-23T11:14:38.683Z,16.37
2023-02-23T11:17:41.339Z,14.00
2023-02-23T11:20:44.366Z,16.27
2023-02-23T11:23:49.917Z,14.40
2023-02-23T11:26:52.939Z,13.77
2023-02-23T11:29:56.146Z,10.50
2023-02-23T11:32:59.504Z,15.05
2023-02-23T11:36:15.002Z,13.70
2023-02-23T11:39:21.909Z,13.52
2023-02-23T11:42:26.692Z,18.90
2023-02-23T11:45:29.543Z,16.23
2023-02-23T11:48:33.020Z,19.37
2023-02-23T11:51:36.387Z,13.85
2023-02-23T11:54:40.462Z,23.33
2023-02-23T11:57:43.127Z,22.23
2023-02-23T12:00:47.775Z,16.00
2023-02-23T12:03:51.766Z,22.10
2023-02-23T12:06:54.189Z,25.50
2023-02-23T12:10:01.674Z,11.90
2023-02-23T12:13:10.228Z,19.62
2023-02-23T12:16:15.545Z,15.80
2023-02-23T12:19:24.134Z,13.85
2023-02-23T12:22:29.389Z,22.77
2023-02-23T12:25:36.110Z,14.15
2023-02-23T12:28:40.572Z,14.68
2023-02-23T12:31:44.103Z,15.70
2023-02-23T12:34:49.295Z,17.35
2023-02-23T12:37:54.472Z,16.37
2023-02-23T12:41:04.144Z,11.82
2023-02-23T12:44:15.354Z,14.10
2023-02-23T12:47:22.269Z,14.68
2023-02-23T12:50:27.270Z,15.48
2023-02-23T12:53:34.295Z,11.68
2023-02-23T12:56:45.663Z,11.98
2023-02-23T13:00:20.326Z,13.55
2023-02-23T13:03:46.696Z,15.15
2023-02-23T13:06:53.638Z,9.60
2023-02-23T13:10:01.633Z,18.60
2023-02-23T13:13:16.234Z,14.05
2023-02-23T13:16:21.897Z,13.07
2023-02-23T13:19:27.093Z,32.13
2023-02-23T13:22:33.427Z,10.68
2023-02-23T13:25:38.722Z,12.52
2023-02-23T13:28:48.947Z,20.80
2023-02-23T13:31:51.816Z,17.40
2023-02-23T13:34:56.482Z,15.50
2023-02-23T13:38:01.941Z,17.80
2023-02-23T13:41:07.476Z,13.25
2023-02-23T13:44:15.850Z,10.55
2023-02-23T13:47:27.000Z,13.60
2023-02-23T13:50:31.692Z,20.35
2023-02-23T13:53:39.589Z,20.73
2023-02-23T13:56:43.191Z,12.45
2023-02-23T13:59:47.201Z,17.87
2023-02-23T14:02:49.979Z,12.98
2023-02-23T14:05:56.661Z,16.30
2023-02-23T14:09:00.952Z,20.95
2023-02-23T14:12:06.245Z,17.83
2023-02-23T14:15:41.971Z,16.58
2023-02-23T14:18:57.995Z,10.68
2023-02-23T14:22:01.547Z,16.83
2023-02-23T14:25:41.292Z,15.55
2023-02-23T14:28:44.908Z,15.48
2023-02-23T14:35:01.425Z,11.70
2023-02-23T14:38:04.496Z,13.43
2023-02-23T14:41:09.923Z,14.02
2023-02-23T14:44:27.177Z,16.15
2023-02-23T14:47:40.448Z,44.65
2023-02-23T14:50:43.082Z,15.13
2023-02-23T14:53:45.470Z,18.75
2023-02-23T14:56:48.941Z,26.25
2023-02-23T14:59:57.096Z,24.90
2023-02-23T15:03:02.256Z,22.37
2023-02-23T15:06:04.855Z,18.65
2023-02-23T15:09:08.165Z,23.20
2023-02-23T15:12:14.816Z,51.90
2023-02-23T15:15:18.546Z,15.18
2023-02-23T15:18:26.920Z,12.63
2023-02-23T15:21:29.604Z,11.35
2023-02-23T15:24:33.364Z,14.38
2023-02-23T15:30:45.217Z,16.52
2023-02-23T15:33:50.693Z,34.42
2023-02-23T15:36:54.072Z,39.05
2023-02-23T15:39:58.401Z,32.63
2023-02-23T15:43:01.197Z,73.20
2023-02-23T15:46:05.042Z,61.83
2023-02-23T15:49:10.373Z,70.97
2023-02-23T15:52:15.149Z,76.07
2023-02-23T15:55:21.148Z,100.07
2023-02-23T15:58:25.112Z,33.55
